Time;durP1;ratioP1;P1;durP2;ratioP2;P2;SDS_P1;SDS_P2;PMS_P1;PMS_P2;Temp;Humidity;BMP_temperature;BMP_pressure;BME280_temperature;BME280_humidity;BME280_pressure;Samples;Min_cycle;Max_cycle;Signal;HPM_P1;HPM_P2
2023/03/19 00:01:51;;;;;;;7.80;5.30;;;11.70;95.40;;;;;;5009745;28;20211;-69
2023/03/19 00:04:16;;;;;;;5.63;5.00;;;11.70;95.40;;;;;;5010833;28;20874;-68
2023/03/19 00:06:42;;;;;;;8.80;5.67;;;11.90;95.50;;;;;;5010656;28;20579;-70
2023/03/19 00:09:08;;;;;;;7.57;5.07;;;11.70;95.40;;;;;;5010537;28;20179;-68
2023/03/19 00:11:34;;;;;;;7.50;5.20;;;11.60;95.40;;;;;;5010746;28;20660;-68
2023/03/19 00:13:59;;;;;;;6.70;5.33;;;12.00;95.60;;;;;;5009804;28;20198;-68
2023/03/19 00:16:25;;;;;;;7.73;5.60;;;11.60;95.20;;;;;;5010185;28;20710;-68
2023/03/19 00:18:51;;;;;;;10.38;5.50;;;11.80;95.30;;;;;;5009277;28;20193;-68
2023/03/19 00:21:17;;;;;;;5.03;4.53;;;11.80;95.30;;;;;;5008014;28;20210;-68
2023/03/19 00:23:42;;;;;;;7.00;4.77;;;11.70;95.30;;;;;;5010684;28;20244;-69
2023/03/19 00:26:08;;;;;;;5.93;4.30;;;11.70;95.20;;;;;;5007423;28;20191;-67
2023/03/19 00:28:36;;;;;;;5.10;4.30;;;11.60;95.10;;;;;;5010246;28;20175;-67
2023/03/19 00:31:15;;;;;;;6.97;4.72;;;11.40;95.10;;;;;;5008961;28;20198;-68
2023/03/19 00:33:41;;;;;;;6.15;4.13;;;11.60;95.60;;;;;;5009215;28;20587;-69
2023/03/19 00:36:08;;;;;;;5.30;4.80;;;11.60;95.40;;;;;;5009860;28;20236;-69
2023/03/19 00:38:34;;;;;;;5.43;4.93;;;11.60;95.40;;;;;;5008205;28;20195;-68
2023/03/19 00:41:00;;;;;;;5.03;4.50;;;11.50;95.50;;;;;;5007095;28;20349;-67
2023/03/19 00:43:26;;;;;;;5.43;4.70;;;11.50;95.50;;;;;;5010124;28;20207;-67
2023/03/19 00:45:53;;;;;;;4.75;4.35;;;11.50;95.80;;;;;;5009554;28;20508;-67
2023/03/19 00:48:20;;;;;;;6.35;5.15;;;11.60;95.80;;;;;;5008494;28;20201;-67
2023/03/19 00:50:49;;;;;;;5.75;4.70;;;11.60;95.90;;;;;;5009938;28;20206;-67
2023/03/19 00:53:15;;;;;;;7.57;5.93;;;11.60;96.30;;;;;;5010540;28;20666;-68
2023/03/19 00:55:41;;;;;;;10.30;7.70;;;11.30;95.90;;;;;;5008478;28;20633;-69
2023/03/19 00:58:09;;;;;;;6.10;4.65;;;11.40;96.00;;;;;;5009892;28;20245;-68
2023/03/19 01:00:35;;;;;;;7.40;5.40;;;11.30;96.00;;;;;;5007548;28;20214;-68
2023/03/19 01:03:01;;;;;;;6.35;5.20;;;11.50;96.50;;;;;;5009298;28;20218;-68
2023/03/19 01:05:27;;;;;;;6.07;4.90;;;11.40;96.40;;;;;;5009273;28;20207;-68
2023/03/19 01:07:52;;;;;;;6.45;4.65;;;11.70;96.40;;;;;;5009338;28;20466;-67
2023/03/19 01:10:20;;;;;;;5.20;4.67;;;11.70;96.30;;;;;;5008455;28;20853;-68
2023/03/19 01:12:46;;;;;;;6.85;3.90;;;11.90;96.20;;;;;;5007638;28;20664;-67
2023/03/19 01:15:11;;;;;;;3.87;3.57;;;11.70;95.40;;;;;;5009086;28;20195;-68
2023/03/19 01:17:37;;;;;;;7.47;3.70;;;11.80;95.10;;;;;;5037027;28;20194;-68
2023/03/19 01:20:07;;;;;;;6.63;4.10;;;11.80;95.10;;;;;;5007972;28;20214;-68
2023/03/19 01:22:36;;;;;;;5.95;4.15;;;11.90;95.40;;;;;;5008432;28;20232;-68
2023/03/19 01:25:03;;;;;;;5.28;4.13;;;11.70;95.50;;;;;;5006842;28;20192;-67
2023/03/19 01:27:28;;;;;;;7.03;4.50;;;11.90;95.50;;;;;;5009189;28;20191;-68
2023/03/19 01:29:54;;;;;;;5.23;3.67;;;12.00;95.90;;;;;;5008944;28;20253;-67
2023/03/19 01:32:19;;;;;;;4.80;4.00;;;11.90;95.60;;;;;;5009100;28;20201;-68
2023/03/19 01:34:45;;;;;;;5.57;3.90;;;11.80;95.50;;;;;;5007832;28;20232;-68
2023/03/19 01:37:11;;;;;;;3.77;3.30;;;12.00;95.50;;;;;;5008229;28;20679;-68
2023/03/19 01:39:37;;;;;;;9.00;3.80;;;11.60;95.30;;;;;;5007353;28;20493;-68
2023/03/19 01:42:03;;;;;;;5.30;3.77;;;11.70;95.40;;;;;;5008373;28;20233;-68
2023/03/19 01:44:35;;;;;;;7.15;3.58;;;11.90;95.60;;;;;;5009116;28;20573;-68
2023/03/19 01:47:06;;;;;;;3.90;3.60;;;12.00;95.30;;;;;;5008872;28;20278;-68
2023/03/19 01:49:33;;;;;;;4.40;4.00;;;11.80;95.20;;;;;;5009673;28;20202;-67
2023/03/19 01:52:01;;;;;;;4.13;3.00;;;11.70;95.00;;;;;;5010548;28;20190;-68
2023/03/19 01:54:30;;;;;;;4.55;3.20;;;11.90;94.30;;;;;;5009059;28;20221;-68
2023/03/19 01:57:09;;;;;;;5.47;3.75;;;12.10;94.10;;;;;;5007731;28;20183;-68
2023/03/19 01:59:50;;;;;;;9.18;3.47;;;12.30;94.10;;;;;;5008835;28;20197;-68
2023/03/19 02:02:15;;;;;;;4.68;3.08;;;12.30;94.10;;;;;;5007045;28;20707;-68
2023/03/19 02:04:44;;;;;;;4.00;3.00;;;12.30;93.10;;;;;;5008652;28;20195;-68
2023/03/19 02:07:11;;;;;;;3.38;2.92;;;12.50;92.70;;;;;;5005614;28;20206;-67
2023/03/19 02:09:39;;;;;;;2.72;2.50;;;12.60;92.50;;;;;;5007424;28;20639;-68
2023/03/19 02:12:06;;;;;;;3.17;2.83;;;12.40;92.50;;;;;;5039882;28;20290;-68
2023/03/19 02:14:31;;;;;;;3.97;3.25;;;12.70;92.80;;;;;;5009495;28;20199;-67
2023/03/19 02:16:57;;;;;;;3.90;2.67;;;12.60;93.10;;;;;;5003929;28;20199;-67
2023/03/19 02:19:45;;;;;;;3.40;3.05;;;12.60;94.00;;;;;;5004627;28;20195;-68
2023/03/19 02:22:12;;;;;;;3.25;2.55;;;12.70;95.20;;;;;;5005366;28;20668;-69
2023/03/19 02:24:48;;;;;;;2.72;2.53;;;12.70;97.10;;;;;;5002782;28;20270;-69
2023/03/19 02:27:14;;;;;;;5.68;3.22;;;12.40;98.70;;;;;;5005853;28;20881;-67
2023/03/19 02:29:39;;;;;;;3.15;2.80;;;12.30;99.90;;;;;;5016555;28;21152;-70
2023/03/19 02:32:05;;;;;;;3.33;3.03;;;12.20;99.90;;;;;;5037192;28;20194;-70
2023/03/19 02:34:34;;;;;;;6.07;3.28;;;12.40;99.90;;;;;;5005979;28;20640;-69
2023/03/19 02:37:06;;;;;;;4.78;3.72;;;12.10;99.90;;;;;;5012866;28;20206;-71
2023/03/19 02:39:47;;;;;;;4.65;3.10;;;12.10;99.90;;;;;;5004922;28;20190;-72
2023/03/19 02:42:14;;;;;;;2.95;2.70;;;12.00;99.90;;;;;;5007911;28;20264;-72
2023/03/19 02:44:40;;;;;;;3.78;3.10;;;12.20;99.90;;;;;;5010014;28;20711;-70
2023/03/19 02:47:06;;;;;;;5.00;3.90;;;12.30;99.90;;;;;;5011121;28;20194;-67
2023/03/19 02:49:31;;;;;;;3.63;3.33;;;12.20;99.90;;;;;;5008935;28;20649;-67
2023/03/19 02:51:57;;;;;;;4.10;3.80;;;12.10;99.90;;;;;;5012236;28;20193;-66
2023/03/19 02:54:23;;;;;;;4.60;4.13;;;12.20;99.90;;;;;;5011083;28;20546;-67
2023/03/19 02:56:51;;;;;;;4.17;3.83;;;11.90;99.90;;;;;;5009796;28;20253;-67
2023/03/19 02:59:16;;;;;;;4.22;3.92;;;12.20;99.90;;;;;;5012049;28;20187;-70
2023/03/19 03:01:42;;;;;;;7.80;4.00;;;12.10;99.90;;;;;;5013390;28;20211;-69
2023/03/19 03:04:08;;;;;;;4.30;3.90;;;12.10;99.90;;;;;;5011455;28;20183;-70
2023/03/19 03:06:33;;;;;;;3.87;3.57;;;11.80;99.90;;;;;;5044407;28;20252;-69
2023/03/19 03:08:59;;;;;;;4.63;3.70;;;11.70;99.90;;;;;;5013239;28;20210;-69
2023/03/19 03:11:25;;;;;;;4.75;4.30;;;11.80;99.90;;;;;;5007779;28;20203;-65
2023/03/19 03:13:51;;;;;;;4.95;3.92;;;11.60;99.90;;;;;;5012322;28;20194;-64
2023/03/19 03:16:17;;;;;;;4.13;3.83;;;11.70;99.90;;;;;;5008100;28;20656;-68
2023/03/19 03:18:42;;;;;;;4.30;3.90;;;11.80;99.90;;;;;;5007817;28;20187;-68
2023/03/19 03:21:09;;;;;;;4.60;3.43;;;11.60;99.90;;;;;;5012040;28;20765;-65
2023/03/19 03:23:35;;;;;;;4.10;3.70;;;11.50;99.90;;;;;;5010869;28;20175;-73
2023/03/19 03:26:01;;;;;;;4.85;4.35;;;11.70;99.90;;;;;;5014075;28;20431;-70
2023/03/19 03:28:27;;;;;;;5.25;4.75;;;11.60;99.90;;;;;;5011896;28;20257;-69
2023/03/19 03:30:59;;;;;;;4.80;4.40;;;11.30;99.90;;;;;;5014125;28;20672;-67
2023/03/19 03:33:26;;;;;;;4.78;4.38;;;11.40;99.90;;;;;;5004855;28;20645;-68
2023/03/19 03:35:51;;;;;;;5.55;4.30;;;11.60;99.90;;;;;;5011223;28;20225;-68
2023/03/19 03:38:17;;;;;;;5.57;4.67;;;11.60;99.90;;;;;;5007767;28;20187;-67
2023/03/19 03:40:42;;;;;;;4.37;3.97;;;11.60;99.90;;;;;;5007782;28;20195;-72
2023/03/19 03:43:09;;;;;;;5.50;5.00;;;11.20;99.90;;;;;;5015246;28;20841;-73
2023/03/19 03:45:35;;;;;;;4.95;4.43;;;11.50;99.90;;;;;;5012458;28;20584;-70
2023/03/19 03:48:01;;;;;;;4.75;3.90;;;11.40;99.90;;;;;;5015558;28;20653;-67
2023/03/19 03:50:27;;;;;;;5.22;4.75;;;11.30;99.90;;;;;;5009708;28;20250;-68
2023/03/19 03:52:53;;;;;;;5.05;4.30;;;11.50;99.90;;;;;;5011143;28;20203;-68
2023/03/19 03:55:19;;;;;;;4.70;4.30;;;11.30;99.90;;;;;;5009735;28;20503;-69
2023/03/19 03:57:45;;;;;;;4.43;4.10;;;11.60;99.90;;;;;;5012311;28;20186;-68
2023/03/19 04:00:11;;;;;;;5.83;4.97;;;11.30;99.90;;;;;;5026601;28;20711;-68
2023/03/19 04:02:37;;;;;;;7.47;4.65;;;11.50;99.90;;;;;;5011067;28;20210;-69
2023/03/19 04:05:03;;;;;;;5.03;4.50;;;11.40;99.90;;;;;;5007643;28;20585;-69
2023/03/19 04:07:28;;;;;;;5.37;4.83;;;11.30;99.90;;;;;;5010359;28;20186;-68
2023/03/19 04:09:57;;;;;;;5.00;4.53;;;11.40;99.90;;;;;;5010978;28;20568;-68
2023/03/19 04:12:23;;;;;;;5.82;5.18;;;11.20;99.90;;;;;;5012004;28;20266;-68
2023/03/19 04:14:48;;;;;;;5.30;4.80;;;11.40;99.90;;;;;;5011578;28;20273;-68
2023/03/19 04:17:14;;;;;;;4.43;4.03;;;11.30;99.90;;;;;;5012042;28;20186;-69
2023/03/19 04:19:39;;;;;;;5.90;4.70;;;11.40;99.90;;;;;;5009819;28;20647;-68
2023/03/19 04:22:07;;;;;;;4.50;4.10;;;11.20;99.90;;;;;;5011450;28;20782;-69
2023/03/19 04:24:32;;;;;;;4.60;4.20;;;11.20;99.90;;;;;;5009703;28;20189;-69
2023/03/19 04:26:58;;;;;;;5.13;4.60;;;11.20;99.90;;;;;;5010411;28;20229;-68
2023/03/19 04:29:24;;;;;;;4.77;4.00;;;11.20;99.90;;;;;;5009036;28;20186;-68
2023/03/19 04:31:50;;;;;;;4.50;4.10;;;11.30;99.90;;;;;;5009867;28;20215;-70
2023/03/19 04:34:16;;;;;;;4.83;4.43;;;11.30;99.90;;;;;;5007587;28;20188;-72
2023/03/19 04:36:42;;;;;;;4.65;4.20;;;11.30;99.90;;;;;;5005494;28;20468;-72
2023/03/19 04:39:08;;;;;;;6.88;4.05;;;11.40;99.90;;;;;;5039917;28;20269;-70
2023/03/19 04:41:34;;;;;;;4.20;3.90;;;11.40;99.90;;;;;;5004280;28;20676;-69
2023/03/19 04:44:01;;;;;;;5.07;4.20;;;11.50;99.90;;;;;;5010130;28;20221;-70
2023/03/19 04:46:26;;;;;;;4.60;3.80;;;11.40;99.90;;;;;;5024022;28;20499;-70
2023/03/19 04:48:52;;;;;;;4.53;4.00;;;11.50;99.90;;;;;;5009447;28;20195;-69
2023/03/19 04:51:20;;;;;;;4.57;4.00;;;11.10;99.90;;;;;;5009886;28;20231;-69
2023/03/19 04:53:46;;;;;;;5.32;4.03;;;11.50;99.90;;;;;;5010608;28;20183;-68
2023/03/19 04:56:15;;;;;;;4.10;3.70;;;11.60;99.90;;;;;;5009363;28;20282;-69
2023/03/19 04:58:41;;;;;;;4.43;4.03;;;11.40;99.90;;;;;;5009636;28;20865;-68
2023/03/19 05:01:07;;;;;;;4.82;4.43;;;11.60;99.90;;;;;;5009218;28;20700;-68
2023/03/19 05:03:32;;;;;;;4.20;3.80;;;11.50;99.90;;;;;;5009672;28;20206;-69
2023/03/19 05:05:58;;;;;;;4.10;3.77;;;11.50;99.90;;;;;;5007908;28;20179;-69
2023/03/19 05:08:24;;;;;;;4.80;4.10;;;11.40;99.90;;;;;;5010470;28;20182;-69
2023/03/19 05:10:49;;;;;;;4.33;3.97;;;11.60;99.90;;;;;;5010852;28;20214;-68
2023/03/19 05:13:15;;;;;;;5.50;4.03;;;11.70;99.90;;;;;;5010141;28;20668;-69
2023/03/19 05:15:42;;;;;;;4.60;4.17;;;11.40;99.90;;;;;;5011058;28;20940;-69
2023/03/19 05:18:08;;;;;;;4.57;3.85;;;11.40;99.90;;;;;;5006681;28;20632;-69
2023/03/19 05:20:34;;;;;;;4.63;4.20;;;11.40;99.90;;;;;;5010347;28;20252;-69
2023/03/19 05:23:00;;;;;;;4.55;4.15;;;11.50;99.90;;;;;;5009872;28;20301;-68
2023/03/19 05:25:26;;;;;;;4.95;4.38;;;11.50;99.90;;;;;;5007440;28;20321;-68
2023/03/19 05:27:51;;;;;;;4.27;3.90;;;11.30;99.90;;;;;;5009833;28;20603;-69
2023/03/19 05:30:17;;;;;;;4.60;4.20;;;11.50;99.90;;;;;;5009831;28;20198;-70
2023/03/19 05:32:45;;;;;;;4.90;4.43;;;11.40;99.90;;;;;;5008966;28;20179;-70
2023/03/19 05:35:11;;;;;;;4.60;3.92;;;11.40;99.90;;;;;;5007332;28;20183;-69
2023/03/19 05:37:37;;;;;;;5.30;4.90;;;11.40;99.90;;;;;;5008911;28;20183;-68
2023/03/19 05:40:04;;;;;;;4.30;4.00;;;11.20;99.90;;;;;;5008555;28;20232;-68
2023/03/19 05:42:30;;;;;;;5.65;3.95;;;11.40;99.90;;;;;;5009316;28;20222;-70
2023/03/19 05:44:55;;;;;;;4.63;3.73;;;11.40;99.90;;;;;;5010006;28;20187;-68
2023/03/19 05:47:21;;;;;;;4.57;4.17;;;11.30;99.90;;;;;;5008681;28;20198;-68
2023/03/19 05:49:47;;;;;;;4.30;3.90;;;11.40;99.90;;;;;;5008616;28;20207;-68
2023/03/19 05:52:12;;;;;;;4.20;3.80;;;11.40;99.90;;;;;;5009185;28;20217;-69
2023/03/19 05:54:38;;;;;;;4.63;4.20;;;11.50;99.90;;;;;;5007444;28;20183;-69
2023/03/19 05:57:04;;;;;;;6.35;3.90;;;11.70;99.90;;;;;;5007242;28;20828;-69
2023/03/19 05:59:30;;;;;;;4.47;4.07;;;11.50;99.90;;;;;;5011439;28;20214;-69
2023/03/19 06:01:56;;;;;;;4.40;3.80;;;11.50;99.90;;;;;;5007854;28;20444;-70
2023/03/19 06:04:21;;;;;;;4.20;3.90;;;11.30;99.90;;;;;;5007859;28;20189;-70
2023/03/19 06:06:47;;;;;;;6.07;4.23;;;11.30;99.90;;;;;;5007122;28;20558;-70
2023/03/19 06:09:12;;;;;;;4.60;4.20;;;11.30;99.90;;;;;;5008903;28;20183;-72
2023/03/19 06:11:39;;;;;;;5.40;4.90;;;11.50;99.90;;;;;;5003522;28;20203;-71
2023/03/19 06:14:05;;;;;;;4.55;4.15;;;11.40;99.90;;;;;;5008189;28;20178;-67
2023/03/19 06:16:32;;;;;;;4.28;3.88;;;11.20;99.90;;;;;;5007471;28;20283;-68
2023/03/19 06:18:57;;;;;;;4.75;3.70;;;11.40;99.90;;;;;;5008695;28;20221;-70
2023/03/19 06:21:28;;;;;;;4.20;3.90;;;11.40;99.90;;;;;;5010839;28;20759;-70
2023/03/19 06:23:55;;;;;;;6.07;4.10;;;11.40;99.90;;;;;;5010919;28;20575;-68
2023/03/19 06:26:21;;;;;;;4.45;4.05;;;11.40;99.90;;;;;;5006655;28;20174;-69
2023/03/19 06:28:47;;;;;;;4.15;3.75;;;11.30;99.90;;;;;;5008841;28;20244;-69
2023/03/19 06:31:13;;;;;;;3.83;3.53;;;11.30;99.90;;;;;;5008579;28;20690;-70
2023/03/19 06:33:38;;;;;;;4.40;3.93;;;11.30;99.90;;;;;;5008644;28;20812;-68
2023/03/19 06:36:04;;;;;;;4.93;3.60;;;11.40;99.90;;;;;;5004138;28;20460;-68
2023/03/19 06:38:30;;;;;;;4.18;3.78;;;11.40;99.90;;;;;;5008560;28;20195;-68
2023/03/19 06:40:56;;;;;;;4.00;3.60;;;11.40;99.90;;;;;;5005591;28;20198;-69
2023/03/19 06:43:22;;;;;;;5.37;3.70;;;11.70;99.90;;;;;;5008891;28;20460;-69
2023/03/19 06:45:47;;;;;;;4.90;4.40;;;11.50;99.90;;;;;;5006927;28;20190;-68
2023/03/19 06:48:13;;;;;;;5.70;4.13;;;11.60;99.90;;;;;;5009091;28;20719;-68
2023/03/19 06:50:39;;;;;;;4.83;2.90;;;11.50;99.90;;;;;;5007437;28;20285;-69
2023/03/19 06:53:05;;;;;;;3.20;3.00;;;11.50;99.90;;;;;;5007159;28;20544;-69
2023/03/19 06:55:31;;;;;;;2.63;2.43;;;11.70;99.90;;;;;;5008833;28;20536;-68
2023/03/19 06:57:56;;;;;;;3.30;3.00;;;11.80;99.90;;;;;;5011216;28;20191;-69
2023/03/19 07:00:22;;;;;;;3.30;3.00;;;11.60;99.90;;;;;;5008413;28;20772;-69
2023/03/19 07:02:48;;;;;;;3.30;3.00;;;12.00;99.90;;;;;;5007703;28;20329;-70
2023/03/19 07:05:14;;;;;;;3.73;3.13;;;12.20;99.90;;;;;;5004269;28;20818;-66
2023/03/19 07:07:40;;;;;;;2.80;2.60;;;12.20;99.90;;;;;;5007104;28;20219;-66
2023/03/19 07:10:07;;;;;;;3.33;3.03;;;12.10;99.90;;;;;;5003389;28;20808;-66
2023/03/19 07:12:33;;;;;;;5.95;3.33;;;12.30;99.90;;;;;;5006693;28;20460;-66
2023/03/19 07:14:59;;;;;;;3.57;3.00;;;12.40;99.90;;;;;;5004116;28;20475;-66
2023/03/19 07:17:25;;;;;;;3.50;3.20;;;12.50;99.90;;;;;;5005012;28;20880;-66
2023/03/19 07:19:51;;;;;;;3.20;3.00;;;12.40;99.90;;;;;;5008516;28;20740;-66
2023/03/19 07:22:16;;;;;;;2.87;2.67;;;12.20;99.90;;;;;;5007854;28;20358;-67
2023/03/19 07:24:43;;;;;;;4.60;3.40;;;12.50;99.90;;;;;;5006478;28;20186;-67
2023/03/19 07:27:09;;;;;;;3.88;3.47;;;12.50;99.90;;;;;;5008957;28;20977;-65
2023/03/19 07:29:35;;;;;;;4.47;3.30;;;12.40;99.90;;;;;;5010278;28;20175;-66
2023/03/19 07:32:01;;;;;;;3.95;3.08;;;12.60;99.90;;;;;;5006159;28;20546;-67
2023/03/19 07:34:26;;;;;;;3.23;2.93;;;12.50;99.90;;;;;;5008612;28;20191;-66
2023/03/19 07:36:52;;;;;;;3.87;2.93;;;12.60;99.90;;;;;;5011481;28;20201;-66
2023/03/19 07:39:19;;;;;;;3.23;2.93;;;12.80;99.90;;;;;;5007254;28;20293;-67
2023/03/19 07:41:47;;;;;;;3.50;3.03;;;12.60;99.90;;;;;;5004427;28;20213;-67
2023/03/19 07:44:13;;;;;;;4.75;3.10;;;12.50;99.90;;;;;;5014131;28;20707;-67
2023/03/19 07:46:39;;;;;;;3.83;2.65;;;12.60;99.90;;;;;;5010313;28;20179;-67
2023/03/19 07:49:05;;;;;;;3.77;3.37;;;12.80;99.90;;;;;;5009120;28;20702;-66
2023/03/19 07:51:30;;;;;;;4.43;2.93;;;13.00;99.90;;;;;;5006124;28;20213;-67
2023/03/19 07:53:56;;;;;;;2.37;2.13;;;12.90;99.90;;;;;;5007445;28;20198;-67
2023/03/19 07:56:22;;;;;;;3.13;2.27;;;12.90;99.90;;;;;;5007113;28;20197;-67
2023/03/19 07:58:47;;;;;;;4.23;2.90;;;13.00;99.90;;;;;;5011231;28;20194;-67
2023/03/19 08:01:13;;;;;;;3.43;2.90;;;12.80;99.90;;;;;;5010894;28;20610;-67
2023/03/19 08:03:39;;;;;;;2.93;2.60;;;13.10;99.90;;;;;;5011244;28;20826;-67
2023/03/19 08:06:05;;;;;;;3.13;2.83;;;13.00;99.90;;;;;;5003279;28;20221;-67
2023/03/19 08:08:33;;;;;;;2.70;2.50;;;13.40;99.90;;;;;;5038930;28;20186;-67
2023/03/19 08:11:00;;;;;;;2.78;2.58;;;13.20;99.90;;;;;;5006508;28;20190;-68
2023/03/19 08:13:26;;;;;;;3.65;2.80;;;13.20;99.90;;;;;;5009118;28;20194;-67
2023/03/19 08:15:52;;;;;;;3.35;2.67;;;13.60;99.90;;;;;;5008997;28;20190;-67
2023/03/19 08:18:18;;;;;;;3.25;2.72;;;13.70;99.90;;;;;;5007807;28;20190;-66
2023/03/19 08:20:45;;;;;;;8.95;3.30;;;13.70;99.90;;;;;;5005779;28;20207;-67
2023/03/19 08:23:12;;;;;;;4.28;2.85;;;13.80;99.90;;;;;;5009726;28;20598;-67
2023/03/19 08:25:37;;;;;;;2.75;2.55;;;13.80;99.90;;;;;;5006733;28;20574;-67
2023/03/19 08:28:03;;;;;;;3.43;2.43;;;14.00;99.90;;;;;;5007894;28;20187;-68
2023/03/19 08:30:30;;;;;;;2.70;2.50;;;14.10;99.90;;;;;;5008937;28;20217;-68
2023/03/19 08:32:56;;;;;;;3.20;2.90;;;14.20;99.90;;;;;;5009714;28;20437;-66
2023/03/19 08:35:22;;;;;;;2.60;2.40;;;14.40;99.90;;;;;;5008856;28;20674;-66
2023/03/19 08:37:48;;;;;;;2.87;2.43;;;14.40;99.90;;;;;;5009707;28;20193;-66
2023/03/19 08:40:13;;;;;;;3.57;2.40;;;14.50;99.90;;;;;;5008302;28;20466;-66
2023/03/19 08:42:41;;;;;;;2.90;2.60;;;14.50;99.40;;;;;;5008480;28;20207;-68
2023/03/19 08:45:08;;;;;;;2.47;2.25;;;14.70;99.20;;;;;;5004902;28;20237;-69
2023/03/19 08:47:34;;;;;;;3.67;2.50;;;14.80;98.50;;;;;;5008006;28;20210;-72
2023/03/19 08:50:00;;;;;;;2.50;2.30;;;14.70;98.80;;;;;;5011315;28;20222;-68
2023/03/19 08:52:26;;;;;;;2.50;2.30;;;14.70;98.90;;;;;;5010043;28;20572;-70
2023/03/19 08:54:51;;;;;;;2.87;2.57;;;14.80;98.70;;;;;;5008690;28;20655;-70
2023/03/19 08:57:17;;;;;;;3.00;2.70;;;15.00;98.70;;;;;;5008416;28;20688;-70
2023/03/19 08:59:43;;;;;;;4.80;2.70;;;15.40;98.30;;;;;;5008390;28;20236;-70
2023/03/19 09:02:12;;;;;;;3.33;2.83;;;15.30;97.60;;;;;;5011915;28;20210;-69
2023/03/19 09:04:44;;;;;;;4.05;2.95;;;15.30;97.10;;;;;;5007726;28;20274;-69
2023/03/19 09:07:15;;;;;;;3.92;2.50;;;15.40;97.20;;;;;;5005510;28;20182;-69
2023/03/19 09:09:41;;;;;;;3.60;2.80;;;15.60;96.00;;;;;;5005433;28;20226;-69
2023/03/19 09:12:09;;;;;;;3.47;3.13;;;15.90;96.40;;;;;;5006407;28;20190;-70
2023/03/19 09:14:35;;;;;;;5.68;2.80;;;16.30;97.00;;;;;;5009567;28;20271;-70
2023/03/19 09:17:01;;;;;;;2.80;2.60;;;16.30;96.50;;;;;;5008446;28;20183;-70
2023/03/19 09:19:27;;;;;;;3.30;3.00;;;16.80;95.00;;;;;;5003308;28;20210;-69
2023/03/19 09:21:53;;;;;;;2.93;2.73;;;17.20;94.70;;;;;;5010126;28;20519;-70
2023/03/19 09:24:18;;;;;;;3.30;2.50;;;17.60;94.10;;;;;;5009727;28;20466;-70
2023/03/19 09:26:45;;;;;;;3.03;2.77;;;17.90;93.10;;;;;;5000440;28;20186;-68
2023/03/19 09:29:11;;;;;;;4.97;2.75;;;18.40;91.60;;;;;;5007322;28;20179;-75
2023/03/19 09:31:37;;;;;;;4.40;2.60;;;18.40;91.40;;;;;;5007959;28;20214;-72
2023/03/19 09:34:03;;;;;;;3.92;2.80;;;19.00;90.80;;;;;;5008888;28;21073;-75
2023/03/19 09:36:28;;;;;;;3.63;2.80;;;18.70;89.80;;;;;;5008169;28;20198;-71
2023/03/19 09:38:54;;;;;;;3.63;2.63;;;18.70;88.80;;;;;;5009570;28;20194;-72
2023/03/19 09:41:43;;;;;;;3.60;3.00;;;18.90;88.20;;;;;;5006436;28;20222;-71
2023/03/19 09:44:26;;;;;;;3.10;2.80;;;18.70;88.60;;;;;;5006171;28;20191;-69
2023/03/19 09:47:14;;;;;;;4.80;2.70;;;18.90;89.00;;;;;;5005693;28;20213;-69
2023/03/19 09:49:47;;;;;;;3.55;2.83;;;19.00;88.90;;;;;;5018529;28;20214;-68
2023/03/19 09:52:31;;;;;;;5.40;3.40;;;19.90;87.20;;;;;;5003622;28;20191;-70
2023/03/19 09:55:00;;;;;;;4.27;3.20;;;21.10;83.80;;;;;;5004297;28;20482;-70
2023/03/19 09:57:28;;;;;;;2.83;2.40;;;22.10;81.90;;;;;;5008066;28;20504;-71
2023/03/19 09:59:55;;;;;;;3.30;2.80;;;23.80;75.10;;;;;;5008203;28;20468;-71
2023/03/19 10:02:41;;;;;;;3.20;2.53;;;24.10;69.60;;;;;;5007041;28;20469;-70
2023/03/19 10:05:26;;;;;;;2.83;2.17;;;24.60;63.00;;;;;;5007800;28;20547;-68
2023/03/19 10:08:18;;;;;;;2.70;2.17;;;25.20;59.00;;;;;;5006090;28;20438;-67
2023/03/19 10:10:54;;;;;;;3.07;2.20;;;25.60;55.70;;;;;;5000988;28;20554;-71
2023/03/19 10:13:43;;;;;;;2.63;2.10;;;25.80;55.70;;;;;;4999520;28;20650;-71
2023/03/19 10:16:25;;;;;;;3.40;2.10;;;26.50;54.00;;;;;;5006689;28;20883;-73
2023/03/19 10:18:53;;;;;;;3.30;2.30;;;26.20;53.50;;;;;;5006332;28;20447;-73
2023/03/19 10:21:28;;;;;;;2.40;2.20;;;26.60;52.30;;;;;;5005442;28;20481;-73
2023/03/19 10:24:00;;;;;;;3.50;2.77;;;26.10;52.60;;;;;;5006304;28;20438;-74
2023/03/19 10:26:30;;;;;;;2.53;2.23;;;25.40;54.00;;;;;;5016126;28;20493;-74
2023/03/19 10:29:08;;;;;;;2.67;1.97;;;25.10;54.30;;;;;;5006627;28;20970;-74
2023/03/19 10:32:08;;;;;;;1.97;1.70;;;26.30;53.40;;;;;;5038163;28;20913;-74
2023/03/19 10:34:42;;;;;;;2.17;2.07;;;25.90;52.00;;;;;;5007451;28;20528;-74
2023/03/19 10:37:20;;;;;;;3.90;2.13;;;25.40;52.90;;;;;;5007933;28;21015;-74
2023/03/19 10:39:47;;;;;;;2.60;2.33;;;24.40;53.60;;;;;;5005092;28;20770;-75
2023/03/19 10:42:37;;;;;;;3.90;2.50;;;23.50;55.10;;;;;;5006532;28;20493;-73
2023/03/19 10:45:06;;;;;;;3.57;2.33;;;23.20;54.60;;;;;;5039207;28;20982;-73
2023/03/19 10:47:38;;;;;;;3.23;2.63;;;22.90;55.00;;;;;;5007184;28;20438;-72
2023/03/19 10:50:05;;;;;;;5.37;2.67;;;22.50;56.70;;;;;;5007839;28;20488;-73
2023/03/19 10:52:36;;;;;;;2.73;2.27;;;22.00;56.40;;;;;;5007696;28;20446;-72
2023/03/19 10:55:14;;;;;;;3.33;2.17;;;22.20;57.20;;;;;;5003467;28;20537;-72
2023/03/19 10:57:45;;;;;;;2.63;2.43;;;22.90;55.80;;;;;;5006657;28;20425;-73
2023/03/19 11:00:23;;;;;;;2.73;2.43;;;22.50;56.50;;;;;;5003737;28;20998;-73
2023/03/19 11:02:52;;;;;;;2.83;2.63;;;23.00;55.70;;;;;;5007163;28;20466;-72
2023/03/19 11:05:25;;;;;;;2.03;1.70;;;22.80;55.70;;;;;;5009482;28;20439;-73
2023/03/19 11:08:12;;;;;;;2.93;2.67;;;23.60;54.60;;;;;;5009935;28;21000;-73
2023/03/19 11:10:46;;;;;;;3.40;2.27;;;23.80;54.40;;;;;;5008364;28;20470;-73
2023/03/19 11:13:25;;;;;;;2.73;2.07;;;23.50;53.50;;;;;;5009314;28;20434;-73
2023/03/19 11:15:57;;;;;;;3.13;2.33;;;23.40;53.60;;;;;;5010579;28;20449;-73
2023/03/19 11:18:27;;;;;;;3.33;2.60;;;23.00;54.30;;;;;;5011074;28;20445;-73
2023/03/19 11:21:05;;;;;;;2.80;2.30;;;22.40;54.80;;;;;;5008717;28;20480;-72
2023/03/19 11:23:39;;;;;;;3.13;2.47;;;21.80;56.90;;;;;;5010998;28;20541;-73
2023/03/19 11:26:04;;;;;;;3.17;2.40;;;21.50;57.90;;;;;;5009008;28;20520;-72
2023/03/19 11:28:33;;;;;;;4.43;2.10;;;21.80;58.90;;;;;;5010714;28;20537;-72
2023/03/19 11:31:11;;;;;;;2.70;1.90;;;21.90;57.90;;;;;;5009960;28;20202;-74
2023/03/19 11:33:56;;;;;;;2.33;2.17;;;21.80;58.00;;;;;;5012540;28;20440;-72
2023/03/19 11:36:27;;;;;;;3.50;2.40;;;21.60;58.20;;;;;;5008418;28;20441;-73
2023/03/19 11:39:04;;;;;;;3.77;2.33;;;21.50;59.10;;;;;;5011801;28;20438;-73
2023/03/19 11:41:56;;;;;;;2.60;2.40;;;21.20;59.00;;;;;;5010603;28;20497;-72
2023/03/19 11:44:32;;;;;;;3.10;2.30;;;21.70;58.70;;;;;;5010823;28;20446;-73
2023/03/19 11:47:37;;;;;;;4.03;1.80;;;21.40;56.80;;;;;;5010035;28;20446;-73
2023/03/19 11:50:21;;;;;;;2.87;2.00;;;21.20;57.20;;;;;;5008433;28;20559;-73
2023/03/19 11:52:57;;;;;;;2.80;2.20;;;21.10;57.30;;;;;;5009639;28;20806;-72
2023/03/19 11:56:02;;;;;;;2.80;1.90;;;20.80;58.60;;;;;;5027953;28;20958;-73
2023/03/19 11:58:49;;;;;;;2.55;1.90;;;20.70;57.60;;;;;;5010932;28;20186;-75
2023/03/19 12:01:24;;;;;;;3.47;1.77;;;20.50;58.20;;;;;;5023103;28;20908;-72
2023/03/19 12:03:56;;;;;;;2.40;2.20;;;20.40;58.50;;;;;;5008262;28;20448;-72
2023/03/19 12:06:33;;;;;;;2.00;1.80;;;20.50;59.00;;;;;;5011881;28;20517;-73
2023/03/19 12:09:06;;;;;;;2.73;2.40;;;20.50;59.10;;;;;;5010548;28;20210;-73
2023/03/19 12:11:49;;;;;;;2.00;1.80;;;21.00;58.60;;;;;;5008518;28;20552;-74
2023/03/19 12:14:49;;;;;;;1.80;1.70;;;21.20;58.00;;;;;;5041472;28;21331;-72
2023/03/19 12:17:30;;;;;;;3.13;2.23;;;21.10;57.90;;;;;;5010062;28;20438;-72
2023/03/19 12:20:17;;;;;;;3.33;2.13;;;20.90;57.70;;;;;;5005722;28;20523;-73
2023/03/19 12:22:55;;;;;;;2.33;2.13;;;20.50;58.40;;;;;;5010401;28;20468;-73
2023/03/19 12:25:44;;;;;;;2.72;2.53;;;20.50;59.30;;;;;;5016232;28;20449;-72
2023/03/19 12:28:30;;;;;;;2.42;2.22;;;20.50;59.40;;;;;;5010609;28;20210;-71
2023/03/19 12:31:24;;;;;;;3.03;2.20;;;19.80;59.10;;;;;;5011137;28;20286;-73
2023/03/19 12:33:55;;;;;;;4.10;3.13;;;20.30;59.40;;;;;;5021953;28;20552;-72
2023/03/19 12:36:26;;;;;;;3.43;2.20;;;20.30;60.50;;;;;;5011429;28;20448;-73
2023/03/19 12:39:05;;;;;;;4.13;2.90;;;20.20;60.40;;;;;;5012487;28;20459;-73
2023/03/19 12:41:35;;;;;;;2.58;2.38;;;20.10;61.10;;;;;;5007605;28;20364;-74
2023/03/19 12:44:31;;;;;;;2.45;2.25;;;19.80;60.50;;;;;;5010076;28;20608;-73
2023/03/19 12:47:18;;;;;;;4.15;2.28;;;19.80;61.60;;;;;;5007553;28;20270;-73
2023/03/19 12:49:51;;;;;;;2.42;2.00;;;19.80;61.50;;;;;;5010954;28;20613;-73
2023/03/19 12:52:38;;;;;;;2.67;2.22;;;20.10;62.30;;;;;;5009853;28;20179;-74
2023/03/19 12:55:21;;;;;;;3.80;2.57;;;20.30;61.30;;;;;;5007863;28;20190;-73
2023/03/19 12:57:52;;;;;;;3.50;2.60;;;20.30;61.20;;;;;;5010428;28;20438;-73
2023/03/19 13:00:53;;;;;;;4.60;3.13;;;20.00;62.10;;;;;;5006571;28;20214;-71